sensor_id;sensor_type;location;lat;lon;timestamp;P1;durP1;ratioP1;P2;durP2;ratioP2
43150;SDS011;28755;51.478;5.702;2024-03-06T00:00:41;31.55;;;21.15;;
43150;SDS011;28755;51.478;5.702;2024-03-06T00:03:06;32.58;;;21.45;;
43150;SDS011;28755;51.478;5.702;2024-03-06T00:05:32;33.75;;;22.45;;
43150;SDS011;28755;51.478;5.702;2024-03-06T00:07:57;33.05;;;21.98;;
43150;SDS011;28755;51.478;5.702;2024-03-06T00:10:23;30.52;;;21.08;;
43150;SDS011;28755;51.478;5.702;2024-03-06T00:12:48;33.00;;;20.83;;
43150;SDS011;28755;51.478;5.702;2024-03-06T00:15:14;30.90;;;20.10;;
43150;SDS011;28755;51.478;5.702;2024-03-06T00:17:40;29.83;;;20.85;;
43150;SDS011;28755;51.478;5.702;2024-03-06T00:20:06;30.65;;;20.17;;
43150;SDS011;28755;51.478;5.702;2024-03-06T00:22:33;31.27;;;21.63;;
43150;SDS011;28755;51.478;5.702;2024-03-06T00:24:59;31.23;;;21.15;;
43150;SDS011;28755;51.478;5.702;2024-03-06T00:27:25;29.52;;;20.55;;
43150;SDS011;28755;51.478;5.702;2024-03-06T00:29:50;31.38;;;19.98;;
43150;SDS011;28755;51.478;5.702;2024-03-06T00:32:16;29.60;;;20.88;;
43150;SDS011;28755;51.478;5.702;2024-03-06T00:34:41;32.95;;;20.60;;
43150;SDS011;28755;51.478;5.702;2024-03-06T00:37:07;33.10;;;21.10;;
43150;SDS011;28755;51.478;5.702;2024-03-06T00:39:33;29.05;;;20.40;;
43150;SDS011;28755;51.478;5.702;2024-03-06T00:41:58;27.83;;;20.42;;
43150;SDS011;28755;51.478;5.702;2024-03-06T00:44:24;30.17;;;20.98;;
43150;SDS011;28755;51.478;5.702;2024-03-06T00:46:49;28.50;;;19.92;;
43150;SDS011;28755;51.478;5.702;2024-03-06T00:49:15;32.78;;;20.88;;
43150;SDS011;28755;51.478;5.702;2024-03-06T00:51:41;29.10;;;20.58;;
43150;SDS011;28755;51.478;5.702;2024-03-06T00:54:06;31.52;;;20.52;;
43150;SDS011;28755;51.478;5.702;2024-03-06T00:56:32;32.13;;;20.77;;
43150;SDS011;28755;51.478;5.702;2024-03-06T00:58:57;33.40;;;20.70;;
43150;SDS011;28755;51.478;5.702;2024-03-06T01:01:23;30.02;;;20.63;;
43150;SDS011;28755;51.478;5.702;2024-03-06T01:03:49;31.42;;;20.98;;
43150;SDS011;28755;51.478;5.702;2024-03-06T01:06:14;31.48;;;21.05;;
43150;SDS011;28755;51.478;5.702;2024-03-06T01:08:40;29.98;;;20.73;;
43150;SDS011;28755;51.478;5.702;2024-03-06T01:11:06;34.55;;;22.02;;
43150;SDS011;28755;51.478;5.702;2024-03-06T01:13:31;29.60;;;19.80;;
43150;SDS011;28755;51.478;5.702;2024-03-06T01:15:57;31.55;;;21.13;;
43150;SDS011;28755;51.478;5.702;2024-03-06T01:18:23;33.33;;;21.77;;
43150;SDS011;28755;51.478;5.702;2024-03-06T01:20:48;34.83;;;21.20;;
43150;SDS011;28755;51.478;5.702;2024-03-06T01:23:14;31.33;;;21.25;;
43150;SDS011;28755;51.478;5.702;2024-03-06T01:25:39;34.10;;;23.38;;
43150;SDS011;28755;51.478;5.702;2024-03-06T01:28:05;35.42;;;22.33;;
43150;SDS011;28755;51.478;5.702;2024-03-06T01:30:31;37.58;;;22.20;;
43150;SDS011;28755;51.478;5.702;2024-03-06T01:32:56;35.38;;;22.65;;
43150;SDS011;28755;51.478;5.702;2024-03-06T01:35:22;37.97;;;22.67;;
43150;SDS011;28755;51.478;5.702;2024-03-06T01:37:48;43.75;;;23.95;;
43150;SDS011;28755;51.478;5.702;2024-03-06T01:40:14;35.85;;;23.08;;
43150;SDS011;28755;51.478;5.702;2024-03-06T01:42:40;37.15;;;23.38;;
43150;SDS011;28755;51.478;5.702;2024-03-06T01:45:05;36.35;;;23.08;;
43150;SDS011;28755;51.478;5.702;2024-03-06T01:47:32;36.50;;;23.65;;
43150;SDS011;28755;51.478;5.702;2024-03-06T01:49:58;40.10;;;24.00;;
43150;SDS011;28755;51.478;5.702;2024-03-06T01:52:24;40.45;;;23.90;;
43150;SDS011;28755;51.478;5.702;2024-03-06T01:54:51;41.20;;;25.30;;
43150;SDS011;28755;51.478;5.702;2024-03-06T01:57:17;37.83;;;24.45;;
43150;SDS011;28755;51.478;5.702;2024-03-06T01:59:44;40.20;;;23.92;;
43150;SDS011;28755;51.478;5.702;2024-03-06T02:02:10;39.53;;;24.77;;
43150;SDS011;28755;51.478;5.702;2024-03-06T02:04:38;39.33;;;25.75;;
43150;SDS011;28755;51.478;5.702;2024-03-06T02:07:07;41.22;;;25.80;;
43150;SDS011;28755;51.478;5.702;2024-03-06T02:09:35;43.60;;;25.98;;
43150;SDS011;28755;51.478;5.702;2024-03-06T02:12:01;39.20;;;25.80;;
43150;SDS011;28755;51.478;5.702;2024-03-06T02:14:28;39.92;;;25.42;;
43150;SDS011;28755;51.478;5.702;2024-03-06T02:16:54;39.40;;;25.05;;
43150;SDS011;28755;51.478;5.702;2024-03-06T02:19:20;37.70;;;24.10;;
43150;SDS011;28755;51.478;5.702;2024-03-06T02:21:45;39.45;;;25.30;;
43150;SDS011;28755;51.478;5.702;2024-03-06T02:24:11;41.95;;;25.75;;
43150;SDS011;28755;51.478;5.702;2024-03-06T02:26:38;45.25;;;26.48;;
43150;SDS011;28755;51.478;5.702;2024-03-06T02:29:04;43.28;;;25.65;;
43150;SDS011;28755;51.478;5.702;2024-03-06T02:31:31;40.40;;;26.05;;
43150;SDS011;28755;51.478;5.702;2024-03-06T02:33:56;41.17;;;26.80;;
43150;SDS011;28755;51.478;5.702;2024-03-06T02:36:23;42.80;;;25.40;;
43150;SDS011;28755;51.478;5.702;2024-03-06T02:38:49;40.83;;;25.60;;
43150;SDS011;28755;51.478;5.702;2024-03-06T02:41:15;45.60;;;26.25;;
43150;SDS011;28755;51.478;5.702;2024-03-06T02:43:41;37.88;;;25.17;;
43150;SDS011;28755;51.478;5.702;2024-03-06T02:46:07;42.20;;;24.98;;
43150;SDS011;28755;51.478;5.702;2024-03-06T02:48:33;42.55;;;24.88;;
43150;SDS011;28755;51.478;5.702;2024-03-06T02:50:59;37.78;;;24.30;;
43150;SDS011;28755;51.478;5.702;2024-03-06T02:53:25;40.67;;;23.88;;
43150;SDS011;28755;51.478;5.702;2024-03-06T02:55:51;42.63;;;25.02;;
43150;SDS011;28755;51.478;5.702;2024-03-06T02:58:17;39.92;;;24.05;;
43150;SDS011;28755;51.478;5.702;2024-03-06T03:00:42;40.92;;;23.67;;
43150;SDS011;28755;51.478;5.702;2024-03-06T03:03:09;42.30;;;24.92;;
43150;SDS011;28755;51.478;5.702;2024-03-06T03:05:37;40.35;;;24.95;;
43150;SDS011;28755;51.478;5.702;2024-03-06T03:08:03;40.30;;;23.83;;
43150;SDS011;28755;51.478;5.702;2024-03-06T03:10:29;43.50;;;26.25;;
43150;SDS011;28755;51.478;5.702;2024-03-06T03:12:54;44.08;;;26.30;;
43150;SDS011;28755;51.478;5.702;2024-03-06T03:15:20;44.53;;;25.83;;
43150;SDS011;28755;51.478;5.702;2024-03-06T03:17:46;47.63;;;26.13;;
43150;SDS011;28755;51.478;5.702;2024-03-06T03:20:12;48.60;;;27.10;;
43150;SDS011;28755;51.478;5.702;2024-03-06T03:22:38;43.95;;;26.88;;
43150;SDS011;28755;51.478;5.702;2024-03-06T03:25:07;51.97;;;27.58;;
43150;SDS011;28755;51.478;5.702;2024-03-06T03:27:33;53.20;;;28.92;;
43150;SDS011;28755;51.478;5.702;2024-03-06T03:29:59;55.60;;;28.63;;
43150;SDS011;28755;51.478;5.702;2024-03-06T03:32:25;50.00;;;26.60;;
43150;SDS011;28755;51.478;5.702;2024-03-06T03:34:51;51.28;;;28.48;;
43150;SDS011;28755;51.478;5.702;2024-03-06T03:37:16;42.38;;;26.38;;
43150;SDS011;28755;51.478;5.702;2024-03-06T03:39:43;40.88;;;25.90;;
43150;SDS011;28755;51.478;5.702;2024-03-06T03:42:09;37.10;;;23.23;;
43150;SDS011;28755;51.478;5.702;2024-03-06T03:44:35;38.35;;;24.55;;
43150;SDS011;28755;51.478;5.702;2024-03-06T03:47:00;37.03;;;23.92;;
43150;SDS011;28755;51.478;5.702;2024-03-06T03:49:27;39.15;;;23.75;;
43150;SDS011;28755;51.478;5.702;2024-03-06T03:51:52;36.67;;;23.75;;
43150;SDS011;28755;51.478;5.702;2024-03-06T03:54:18;35.25;;;23.20;;
43150;SDS011;28755;51.478;5.702;2024-03-06T03:56:43;35.15;;;23.27;;
43150;SDS011;28755;51.478;5.702;2024-03-06T03:59:09;44.15;;;24.65;;
43150;SDS011;28755;51.478;5.702;2024-03-06T04:01:35;42.25;;;24.13;;
43150;SDS011;28755;51.478;5.702;2024-03-06T04:04:00;39.10;;;24.25;;
43150;SDS011;28755;51.478;5.702;2024-03-06T04:06:26;41.33;;;25.17;;
43150;SDS011;28755;51.478;5.702;2024-03-06T04:08:51;40.85;;;23.48;;
43150;SDS011;28755;51.478;5.702;2024-03-06T04:11:17;38.47;;;23.90;;
43150;SDS011;28755;51.478;5.702;2024-03-06T04:13:43;35.05;;;22.38;;
43150;SDS011;28755;51.478;5.702;2024-03-06T04:16:08;38.05;;;22.52;;
43150;SDS011;28755;51.478;5.702;2024-03-06T04:18:34;34.92;;;22.42;;
43150;SDS011;28755;51.478;5.702;2024-03-06T04:21:06;34.75;;;21.60;;
43150;SDS011;28755;51.478;5.702;2024-03-06T04:23:32;35.13;;;23.02;;
43150;SDS011;28755;51.478;5.702;2024-03-06T04:25:59;37.85;;;23.48;;
43150;SDS011;28755;51.478;5.702;2024-03-06T04:28:25;37.58;;;23.63;;
43150;SDS011;28755;51.478;5.702;2024-03-06T04:30:50;40.08;;;22.77;;
43150;SDS011;28755;51.478;5.702;2024-03-06T04:33:16;35.15;;;23.17;;
43150;SDS011;28755;51.478;5.702;2024-03-06T04:35:42;34.55;;;22.42;;
43150;SDS011;28755;51.478;5.702;2024-03-06T04:38:07;34.67;;;22.10;;
43150;SDS011;28755;51.478;5.702;2024-03-06T04:40:33;36.80;;;22.35;;
43150;SDS011;28755;51.478;5.702;2024-03-06T04:42:59;33.45;;;22.05;;
43150;SDS011;28755;51.478;5.702;2024-03-06T04:45:25;37.05;;;23.00;;
43150;SDS011;28755;51.478;5.702;2024-03-06T04:47:51;35.38;;;22.60;;
43150;SDS011;28755;51.478;5.702;2024-03-06T04:50:17;35.78;;;21.73;;
43150;SDS011;28755;51.478;5.702;2024-03-06T04:52:42;37.50;;;22.75;;
43150;SDS011;28755;51.478;5.702;2024-03-06T04:55:09;37.05;;;23.15;;
43150;SDS011;28755;51.478;5.702;2024-03-06T04:57:36;36.78;;;23.30;;
43150;SDS011;28755;51.478;5.702;2024-03-06T05:00:03;37.67;;;23.85;;
43150;SDS011;28755;51.478;5.702;2024-03-06T05:02:34;36.70;;;23.38;;
43150;SDS011;28755;51.478;5.702;2024-03-06T05:05:01;35.72;;;23.63;;
43150;SDS011;28755;51.478;5.702;2024-03-06T05:07:28;37.78;;;22.48;;
43150;SDS011;28755;51.478;5.702;2024-03-06T05:09:54;39.20;;;23.75;;
43150;SDS011;28755;51.478;5.702;2024-03-06T05:12:20;39.63;;;23.95;;
43150;SDS011;28755;51.478;5.702;2024-03-06T05:14:45;40.78;;;24.35;;
43150;SDS011;28755;51.478;5.702;2024-03-06T05:17:11;40.72;;;23.10;;
43150;SDS011;28755;51.478;5.702;2024-03-06T05:19:37;38.78;;;22.35;;
43150;SDS011;28755;51.478;5.702;2024-03-06T05:22:02;42.05;;;23.65;;
43150;SDS011;28755;51.478;5.702;2024-03-06T05:24:29;39.65;;;23.05;;
43150;SDS011;28755;51.478;5.702;2024-03-06T05:26:55;36.88;;;21.10;;
43150;SDS011;28755;51.478;5.702;2024-03-06T05:29:20;37.10;;;22.23;;
43150;SDS011;28755;51.478;5.702;2024-03-06T05:31:46;35.65;;;21.35;;
43150;SDS011;28755;51.478;5.702;2024-03-06T05:34:12;34.15;;;20.67;;
43150;SDS011;28755;51.478;5.702;2024-03-06T05:36:37;33.38;;;21.73;;
43150;SDS011;28755;51.478;5.702;2024-03-06T05:39:03;33.53;;;21.42;;
43150;SDS011;28755;51.478;5.702;2024-03-06T05:41:32;30.15;;;19.35;;
43150;SDS011;28755;51.478;5.702;2024-03-06T05:43:58;29.63;;;19.10;;
43150;SDS011;28755;51.478;5.702;2024-03-06T05:46:24;32.38;;;20.15;;
43150;SDS011;28755;51.478;5.702;2024-03-06T05:48:50;26.73;;;18.73;;
43150;SDS011;28755;51.478;5.702;2024-03-06T05:51:16;31.23;;;19.48;;
43150;SDS011;28755;51.478;5.702;2024-03-06T05:53:42;25.90;;;18.92;;
43150;SDS011;28755;51.478;5.702;2024-03-06T05:56:08;28.90;;;18.77;;
43150;SDS011;28755;51.478;5.702;2024-03-06T05:58:34;30.27;;;19.40;;
43150;SDS011;28755;51.478;5.702;2024-03-06T06:01:00;27.17;;;19.00;;
43150;SDS011;28755;51.478;5.702;2024-03-06T06:03:31;25.25;;;18.13;;
43150;SDS011;28755;51.478;5.702;2024-03-06T06:05:57;25.83;;;18.42;;
43150;SDS011;28755;51.478;5.702;2024-03-06T06:08:23;24.50;;;18.08;;
43150;SDS011;28755;51.478;5.702;2024-03-06T06:10:49;24.77;;;17.38;;
43150;SDS011;28755;51.478;5.702;2024-03-06T06:13:16;28.05;;;18.65;;
43150;SDS011;28755;51.478;5.702;2024-03-06T06:15:43;24.02;;;17.02;;
43150;SDS011;28755;51.478;5.702;2024-03-06T06:18:09;24.50;;;17.35;;
43150;SDS011;28755;51.478;5.702;2024-03-06T06:20:34;25.25;;;18.02;;
43150;SDS011;28755;51.478;5.702;2024-03-06T06:23:00;24.85;;;17.95;;
43150;SDS011;28755;51.478;5.702;2024-03-06T06:25:26;26.05;;;17.50;;
43150;SDS011;28755;51.478;5.702;2024-03-06T06:27:52;25.00;;;17.15;;
43150;SDS011;28755;51.478;5.702;2024-03-06T06:30:17;25.77;;;18.42;;
43150;SDS011;28755;51.478;5.702;2024-03-06T06:32:43;24.63;;;18.13;;
43150;SDS011;28755;51.478;5.702;2024-03-06T06:35:09;26.73;;;18.80;;
43150;SDS011;28755;51.478;5.702;2024-03-06T06:37:36;26.50;;;19.13;;
43150;SDS011;28755;51.478;5.702;2024-03-06T06:40:02;26.33;;;19.00;;
43150;SDS011;28755;51.478;5.702;2024-03-06T06:42:34;26.98;;;18.58;;
43150;SDS011;28755;51.478;5.702;2024-03-06T06:45:01;25.00;;;18.65;;
43150;SDS011;28755;51.478;5.702;2024-03-06T06:47:27;31.55;;;20.00;;
43150;SDS011;28755;51.478;5.702;2024-03-06T06:49:53;29.40;;;20.20;;
43150;SDS011;28755;51.478;5.702;2024-03-06T06:52:19;29.65;;;21.00;;
43150;SDS011;28755;51.478;5.702;2024-03-06T06:54:45;32.33;;;21.02;;
43150;SDS011;28755;51.478;5.702;2024-03-06T06:57:10;29.25;;;20.75;;
43150;SDS011;28755;51.478;5.702;2024-03-06T06:59:36;27.77;;;21.00;;
43150;SDS011;28755;51.478;5.702;2024-03-06T07:02:02;27.05;;;20.25;;
43150;SDS011;28755;51.478;5.702;2024-03-06T07:04:28;27.23;;;19.38;;
43150;SDS011;28755;51.478;5.702;2024-03-06T07:06:53;25.58;;;18.77;;
43150;SDS011;28755;51.478;5.702;2024-03-06T07:09:19;24.80;;;17.35;;
43150;SDS011;28755;51.478;5.702;2024-03-06T07:11:45;23.52;;;16.00;;
43150;SDS011;28755;51.478;5.702;2024-03-06T07:14:13;19.55;;;15.02;;
43150;SDS011;28755;51.478;5.702;2024-03-06T07:16:42;18.42;;;13.98;;
43150;SDS011;28755;51.478;5.702;2024-03-06T07:19:09;20.70;;;14.43;;
43150;SDS011;28755;51.478;5.702;2024-03-06T07:21:34;19.65;;;13.82;;
43150;SDS011;28755;51.478;5.702;2024-03-06T07:24:00;20.05;;;13.48;;
43150;SDS011;28755;51.478;5.702;2024-03-06T07:26:26;18.40;;;13.80;;
43150;SDS011;28755;51.478;5.702;2024-03-06T07:28:54;20.45;;;13.40;;
43150;SDS011;28755;51.478;5.702;2024-03-06T07:31:20;17.52;;;11.75;;
43150;SDS011;28755;51.478;5.702;2024-03-06T07:33:46;18.13;;;12.18;;
43150;SDS011;28755;51.478;5.702;2024-03-06T07:36:11;14.07;;;11.35;;
43150;SDS011;28755;51.478;5.702;2024-03-06T07:38:37;17.77;;;12.57;;
43150;SDS011;28755;51.478;5.702;2024-03-06T07:41:03;17.70;;;11.75;;
43150;SDS011;28755;51.478;5.702;2024-03-06T07:43:29;15.60;;;11.18;;
43150;SDS011;28755;51.478;5.702;2024-03-06T07:45:54;16.90;;;10.88;;
43150;SDS011;28755;51.478;5.702;2024-03-06T07:48:20;16.42;;;11.45;;
43150;SDS011;28755;51.478;5.702;2024-03-06T07:50:46;13.48;;;10.25;;
43150;SDS011;28755;51.478;5.702;2024-03-06T07:53:11;17.48;;;11.57;;
43150;SDS011;28755;51.478;5.702;2024-03-06T07:55:37;14.85;;;9.85;;
43150;SDS011;28755;51.478;5.702;2024-03-06T07:58:04;16.55;;;9.95;;
43150;SDS011;28755;51.478;5.702;2024-03-06T08:00:30;15.82;;;10.52;;
43150;SDS011;28755;51.478;5.702;2024-03-06T08:02:56;13.00;;;9.20;;
43150;SDS011;28755;51.478;5.702;2024-03-06T08:05:22;12.25;;;8.52;;
43150;SDS011;28755;51.478;5.702;2024-03-06T08:07:48;11.07;;;8.88;;
43150;SDS011;28755;51.478;5.702;2024-03-06T08:10:13;9.80;;;8.10;;
43150;SDS011;28755;51.478;5.702;2024-03-06T08:12:42;11.90;;;8.52;;
43150;SDS011;28755;51.478;5.702;2024-03-06T08:15:12;12.23;;;8.88;;
43150;SDS011;28755;51.478;5.702;2024-03-06T08:17:39;10.05;;;7.78;;
43150;SDS011;28755;51.478;5.702;2024-03-06T08:20:09;13.38;;;8.10;;
43150;SDS011;28755;51.478;5.702;2024-03-06T08:22:36;10.35;;;7.28;;
43150;SDS011;28755;51.478;5.702;2024-03-06T08:25:07;8.43;;;7.53;;
43150;SDS011;28755;51.478;5.702;2024-03-06T08:27:35;10.90;;;7.65;;
43150;SDS011;28755;51.478;5.702;2024-03-06T08:30:02;14.38;;;8.57;;
43150;SDS011;28755;51.478;5.702;2024-03-06T08:32:29;11.45;;;8.20;;
43150;SDS011;28755;51.478;5.702;2024-03-06T08:34:58;11.80;;;8.25;;
43150;SDS011;28755;51.478;5.702;2024-03-06T08:37:24;11.60;;;7.72;;
43150;SDS011;28755;51.478;5.702;2024-03-06T08:39:50;9.77;;;7.72;;
43150;SDS011;28755;51.478;5.702;2024-03-06T08:42:16;11.20;;;7.60;;
43150;SDS011;28755;51.478;5.702;2024-03-06T08:44:43;13.90;;;7.85;;
43150;SDS011;28755;51.478;5.702;2024-03-06T08:47:09;13.93;;;7.35;;
43150;SDS011;28755;51.478;5.702;2024-03-06T08:49:35;14.77;;;7.40;;
43150;SDS011;28755;51.478;5.702;2024-03-06T08:52:00;10.63;;;7.38;;
43150;SDS011;28755;51.478;5.702;2024-03-06T08:54:26;9.85;;;7.72;;
43150;SDS011;28755;51.478;5.702;2024-03-06T08:56:51;9.43;;;7.05;;
43150;SDS011;28755;51.478;5.702;2024-03-06T08:59:23;10.77;;;6.80;;
43150;SDS011;28755;51.478;5.702;2024-03-06T09:01:49;11.88;;;7.30;;
43150;SDS011;28755;51.478;5.702;2024-03-06T09:04:19;10.50;;;6.80;;
43150;SDS011;28755;51.478;5.702;2024-03-06T09:06:45;13.48;;;6.97;;
43150;SDS011;28755;51.478;5.702;2024-03-06T09:09:10;8.45;;;7.03;;
43150;SDS011;28755;51.478;5.702;2024-03-06T09:11:39;13.00;;;7.70;;
43150;SDS011;28755;51.478;5.702;2024-03-06T09:14:05;10.52;;;7.50;;
43150;SDS011;28755;51.478;5.702;2024-03-06T09:16:31;12.85;;;8.07;;
43150;SDS011;28755;51.478;5.702;2024-03-06T09:18:56;12.55;;;7.70;;
43150;SDS011;28755;51.478;5.702;2024-03-06T09:21:22;9.85;;;7.47;;
43150;SDS011;28755;51.478;5.702;2024-03-06T09:23:47;10.45;;;7.78;;
43150;SDS011;28755;51.478;5.702;2024-03-06T09:26:16;8.43;;;7.25;;
43150;SDS011;28755;51.478;5.702;2024-03-06T09:28:42;10.07;;;7.65;;
43150;SDS011;28755;51.478;5.702;2024-03-06T09:31:08;9.75;;;7.28;;
43150;SDS011;28755;51.478;5.702;2024-03-06T09:33:33;12.48;;;7.10;;
43150;SDS011;28755;51.478;5.702;2024-03-06T09:35:59;9.05;;;7.18;;
43150;SDS011;28755;51.478;5.702;2024-03-06T09:38:24;12.82;;;7.28;;
43150;SDS011;28755;51.478;5.702;2024-03-06T09:40:50;10.32;;;6.72;;
43150;SDS011;28755;51.478;5.702;2024-03-06T09:43:17;11.23;;;7.53;;
43150;SDS011;28755;51.478;5.702;2024-03-06T09:45:44;9.18;;;7.25;;
43150;SDS011;28755;51.478;5.702;2024-03-06T09:50:38;9.30;;;6.57;;
43150;SDS011;28755;51.478;5.702;2024-03-06T09:53:10;11.20;;;6.95;;
43150;SDS011;28755;51.478;5.702;2024-03-06T09:55:40;8.75;;;6.38;;
43150;SDS011;28755;51.478;5.702;2024-03-06T09:58:07;11.93;;;6.40;;
43150;SDS011;28755;51.478;5.702;2024-03-06T10:00:33;8.23;;;6.05;;
43150;SDS011;28755;51.478;5.702;2024-03-06T10:03:01;9.82;;;6.50;;
43150;SDS011;28755;51.478;5.702;2024-03-06T10:05:33;10.40;;;6.70;;
43150;SDS011;28755;51.478;5.702;2024-03-06T10:08:00;6.60;;;5.53;;
43150;SDS011;28755;51.478;5.702;2024-03-06T10:10:26;7.53;;;5.95;;
43150;SDS011;28755;51.478;5.702;2024-03-06T10:12:52;8.40;;;6.03;;
43150;SDS011;28755;51.478;5.702;2024-03-06T10:15:18;7.85;;;6.13;;
43150;SDS011;28755;51.478;5.702;2024-03-06T10:17:44;7.70;;;5.20;;
43150;SDS011;28755;51.478;5.702;2024-03-06T10:22:48;7.63;;;5.28;;
43150;SDS011;28755;51.478;5.702;2024-03-06T10:25:18;7.17;;;5.30;;
43150;SDS011;28755;51.478;5.702;2024-03-06T10:27:45;8.53;;;4.83;;
43150;SDS011;28755;51.478;5.702;2024-03-06T10:30:10;6.88;;;4.82;;
43150;SDS011;28755;51.478;5.702;2024-03-06T10:32:39;6.88;;;4.82;;
43150;SDS011;28755;51.478;5.702;2024-03-06T10:35:05;7.43;;;4.38;;
43150;SDS011;28755;51.478;5.702;2024-03-06T10:37:34;5.18;;;3.50;;
43150;SDS011;28755;51.478;5.702;2024-03-06T10:40:02;10.30;;;4.68;;
43150;SDS011;28755;51.478;5.702;2024-03-06T10:42:31;5.95;;;3.40;;
43150;SDS011;28755;51.478;5.702;2024-03-06T10:44:58;4.30;;;3.35;;
43150;SDS011;28755;51.478;5.702;2024-03-06T10:47:25;4.00;;;3.00;;
43150;SDS011;28755;51.478;5.702;2024-03-06T10:49:53;6.55;;;4.50;;
43150;SDS011;28755;51.478;5.702;2024-03-06T10:52:20;5.82;;;4.65;;
43150;SDS011;28755;51.478;5.702;2024-03-06T10:54:46;5.43;;;4.30;;
43150;SDS011;28755;51.478;5.702;2024-03-06T10:57:13;7.22;;;4.95;;
43150;SDS011;28755;51.478;5.702;2024-03-06T10:59:39;9.20;;;4.93;;
43150;SDS011;28755;51.478;5.702;2024-03-06T11:02:07;7.03;;;4.70;;
43150;SDS011;28755;51.478;5.702;2024-03-06T11:04:34;9.52;;;4.53;;
43150;SDS011;28755;51.478;5.702;2024-03-06T11:07:01;6.60;;;5.00;;
43150;SDS011;28755;51.478;5.702;2024-03-06T11:09:28;11.60;;;5.00;;
43150;SDS011;28755;51.478;5.702;2024-03-06T11:14:23;10.48;;;5.10;;
43150;SDS011;28755;51.478;5.702;2024-03-06T11:17:01;6.63;;;4.93;;
43150;SDS011;28755;51.478;5.702;2024-03-06T11:28:30;6.05;;;4.88;;
43150;SDS011;28755;51.478;5.702;2024-03-06T11:31:07;6.80;;;4.65;;
43150;SDS011;28755;51.478;5.702;2024-03-06T11:33:42;6.45;;;5.22;;
43150;SDS011;28755;51.478;5.702;2024-03-06T11:36:16;7.05;;;5.00;;
43150;SDS011;28755;51.478;5.702;2024-03-06T11:38:52;9.52;;;4.80;;
43150;SDS011;28755;51.478;5.702;2024-03-06T11:41:18;5.45;;;4.10;;
43150;SDS011;28755;51.478;5.702;2024-03-06T11:43:45;10.07;;;4.72;;
43150;SDS011;28755;51.478;5.702;2024-03-06T11:46:14;5.03;;;3.92;;
43150;SDS011;28755;51.478;5.702;2024-03-06T11:48:39;5.65;;;4.00;;
43150;SDS011;28755;51.478;5.702;2024-03-06T11:51:05;5.68;;;4.18;;
43150;SDS011;28755;51.478;5.702;2024-03-06T11:53:32;6.22;;;4.20;;
43150;SDS011;28755;51.478;5.702;2024-03-06T11:56:00;5.47;;;4.10;;
43150;SDS011;28755;51.478;5.702;2024-03-06T11:58:25;5.68;;;4.40;;
43150;SDS011;28755;51.478;5.702;2024-03-06T12:00:51;7.65;;;4.53;;
43150;SDS011;28755;51.478;5.702;2024-03-06T12:03:18;7.00;;;4.15;;
43150;SDS011;28755;51.478;5.702;2024-03-06T12:05:45;7.78;;;4.20;;
43150;SDS011;28755;51.478;5.702;2024-03-06T12:08:11;7.57;;;4.45;;
43150;SDS011;28755;51.478;5.702;2024-03-06T12:10:37;8.10;;;4.50;;
43150;SDS011;28755;51.478;5.702;2024-03-06T12:13:04;7.13;;;4.80;;
43150;SDS011;28755;51.478;5.702;2024-03-06T12:15:30;7.90;;;4.88;;
43150;SDS011;28755;51.478;5.702;2024-03-06T12:17:56;9.57;;;5.07;;
43150;SDS011;28755;51.478;5.702;2024-03-06T12:20:23;8.07;;;5.22;;
43150;SDS011;28755;51.478;5.702;2024-03-06T12:22:51;7.40;;;5.25;;
43150;SDS011;28755;51.478;5.702;2024-03-06T12:25:20;7.22;;;4.63;;
43150;SDS011;28755;51.478;5.702;2024-03-06T12:27:48;7.72;;;5.07;;
43150;SDS011;28755;51.478;5.702;2024-03-06T12:30:21;7.68;;;4.95;;
43150;SDS011;28755;51.478;5.702;2024-03-06T12:32:57;9.05;;;5.18;;
43150;SDS011;28755;51.478;5.702;2024-03-06T12:35:30;7.18;;;5.35;;
43150;SDS011;28755;51.478;5.702;2024-03-06T12:37:56;8.10;;;5.45;;
43150;SDS011;28755;51.478;5.702;2024-03-06T12:40:23;7.35;;;5.53;;
43150;SDS011;28755;51.478;5.702;2024-03-06T12:42:49;8.35;;;5.47;;
43150;SDS011;28755;51.478;5.702;2024-03-06T12:45:17;9.50;;;5.72;;
43150;SDS011;28755;51.478;5.702;2024-03-06T12:47:43;9.15;;;6.03;;
43150;SDS011;28755;51.478;5.702;2024-03-06T12:50:10;8.73;;;4.82;;
43150;SDS011;28755;51.478;5.702;2024-03-06T12:52:37;7.80;;;4.72;;
43150;SDS011;28755;51.478;5.702;2024-03-06T12:55:03;9.43;;;4.60;;
43150;SDS011;28755;51.478;5.702;2024-03-06T12:57:32;8.77;;;5.05;;
43150;SDS011;28755;51.478;5.702;2024-03-06T12:59:58;8.68;;;4.35;;
43150;SDS011;28755;51.478;5.702;2024-03-06T13:02:24;8.30;;;5.05;;
43150;SDS011;28755;51.478;5.702;2024-03-06T13:04:50;7.30;;;4.45;;
43150;SDS011;28755;51.478;5.702;2024-03-06T13:07:15;4.57;;;3.80;;
43150;SDS011;28755;51.478;5.702;2024-03-06T13:09:41;4.05;;;3.28;;
43150;SDS011;28755;51.478;5.702;2024-03-06T13:12:07;5.40;;;3.50;;
43150;SDS011;28755;51.478;5.702;2024-03-06T13:14:33;6.35;;;3.53;;
43150;SDS011;28755;51.478;5.702;2024-03-06T13:16:59;4.15;;;3.17;;
43150;SDS011;28755;51.478;5.702;2024-03-06T13:19:25;3.70;;;2.80;;
43150;SDS011;28755;51.478;5.702;2024-03-06T13:21:51;4.45;;;3.20;;
43150;SDS011;28755;51.478;5.702;2024-03-06T13:24:17;5.25;;;3.33;;
43150;SDS011;28755;51.478;5.702;2024-03-06T13:26:44;3.97;;;3.15;;
43150;SDS011;28755;51.478;5.702;2024-03-06T13:29:10;5.68;;;3.60;;
43150;SDS011;28755;51.478;5.702;2024-03-06T13:31:36;6.53;;;3.35;;
43150;SDS011;28755;51.478;5.702;2024-03-06T13:34:02;5.70;;;3.65;;
43150;SDS011;28755;51.478;5.702;2024-03-06T13:36:29;11.10;;;3.53;;
43150;SDS011;28755;51.478;5.702;2024-03-06T13:38:55;6.00;;;3.55;;
43150;SDS011;28755;51.478;5.702;2024-03-06T13:41:21;5.75;;;3.80;;
43150;SDS011;28755;51.478;5.702;2024-03-06T13:43:47;7.95;;;3.80;;
43150;SDS011;28755;51.478;5.702;2024-03-06T13:46:12;5.75;;;3.70;;
43150;SDS011;28755;51.478;5.702;2024-03-06T13:48:38;4.53;;;3.70;;
43150;SDS011;28755;51.478;5.702;2024-03-06T13:51:04;5.10;;;3.80;;
43150;SDS011;28755;51.478;5.702;2024-03-06T13:53:30;7.32;;;3.78;;
43150;SDS011;28755;51.478;5.702;2024-03-06T13:55:56;6.10;;;3.55;;
43150;SDS011;28755;51.478;5.702;2024-03-06T13:58:22;4.85;;;3.58;;
43150;SDS011;28755;51.478;5.702;2024-03-06T14:00:48;6.63;;;3.42;;
43150;SDS011;28755;51.478;5.702;2024-03-06T14:03:13;5.90;;;3.88;;
43150;SDS011;28755;51.478;5.702;2024-03-06T14:05:39;6.53;;;4.30;;
43150;SDS011;28755;51.478;5.702;2024-03-06T14:08:05;5.72;;;4.38;;
43150;SDS011;28755;51.478;5.702;2024-03-06T14:10:32;6.15;;;3.80;;
43150;SDS011;28755;51.478;5.702;2024-03-06T14:12:59;5.95;;;4.03;;
43150;SDS011;28755;51.478;5.702;2024-03-06T14:15:25;5.88;;;4.47;;
43150;SDS011;28755;51.478;5.702;2024-03-06T14:17:51;7.45;;;4.88;;
43150;SDS011;28755;51.478;5.702;2024-03-06T14:20:19;7.13;;;4.97;;
43150;SDS011;28755;51.478;5.702;2024-03-06T14:22:48;8.82;;;5.40;;
43150;SDS011;28755;51.478;5.702;2024-03-06T14:25:14;6.63;;;4.82;;
43150;SDS011;28755;51.478;5.702;2024-03-06T14:27:40;8.93;;;5.40;;
43150;SDS011;28755;51.478;5.702;2024-03-06T14:30:05;8.60;;;5.72;;
43150;SDS011;28755;51.478;5.702;2024-03-06T14:32:32;7.07;;;5.82;;
43150;SDS011;28755;51.478;5.702;2024-03-06T14:34:58;10.30;;;6.30;;
43150;SDS011;28755;51.478;5.702;2024-03-06T14:37:24;8.50;;;5.95;;
43150;SDS011;28755;51.478;5.702;2024-03-06T14:39:49;9.57;;;6.20;;
43150;SDS011;28755;51.478;5.702;2024-03-06T14:42:16;8.43;;;6.15;;